Time;durP1;ratioP1;P1;durP2;ratioP2;P2;SDS_P1;SDS_P2;PMS_P1;PMS_P2;Temp;Humidity;BMP_temperature;BMP_pressure;BME280_temperature;BME280_humidity;BME280_pressure;Samples;Min_cycle;Max_cycle;Signal;HPM_P1;HPM_P2
2021/04/10 00:01:21;;;;;;;6.10;3.20;;;10.30;59.50;;;;;;5104491;28;27910;-59
2021/04/10 00:05:08;;;;;;;5.82;2.60;;;10.20;59.50;;;;;;5105689;28;27370;-59
2021/04/10 00:08:53;;;;;;;4.47;2.60;;;10.20;59.40;;;;;;5105341;28;27360;-59
2021/04/10 00:12:35;;;;;;;7.55;2.80;;;10.20;59.40;;;;;;5103339;27;27405;-59
2021/04/10 00:16:03;;;;;;;6.03;2.55;;;10.20;59.20;;;;;;5104948;28;27380;-60
2021/04/10 00:19:21;;;;;;;6.95;2.60;;;10.20;59.40;;;;;;5105210;28;27484;-59
2021/04/10 00:22:52;;;;;;;5.82;2.83;;;10.10;59.40;;;;;;5105556;28;27429;-59
2021/04/10 00:25:59;;;;;;;4.70;2.55;;;10.10;59.50;;;;;;5103649;28;27370;-59
2021/04/10 00:28:59;;;;;;;5.60;2.85;;;10.10;59.70;;;;;;5104248;28;27968;-60
2021/04/10 00:32:10;;;;;;;6.22;2.67;;;10.10;60.40;;;;;;5104999;28;27511;-59
2021/04/10 00:35:16;;;;;;;4.38;2.63;;;10.10;59.60;;;;;;5103580;28;27327;-59
2021/04/10 00:38:47;;;;;;;4.38;2.65;;;10.10;59.70;;;;;;5104547;28;27430;-59
2021/04/10 00:41:40;;;;;;;4.65;2.30;;;10.10;59.80;;;;;;5103329;28;27964;-60
2021/04/10 00:45:08;;;;;;;7.15;2.33;;;10.10;59.70;;;;;;5104774;28;27502;-59
2021/04/10 00:48:37;;;;;;;4.32;2.65;;;10.10;59.80;;;;;;5104487;28;27375;-59
2021/04/10 00:51:21;;;;;;;3.90;2.42;;;10.00;59.90;;;;;;5104345;28;27483;-61
2021/04/10 00:54:15;;;;;;;5.10;2.67;;;10.00;60.00;;;;;;5103912;28;27504;-60
2021/04/10 00:57:31;;;;;;;6.03;2.63;;;10.00;59.80;;;;;;5100574;28;27345;-60
2021/04/10 01:00:35;;;;;;;4.18;2.25;;;10.00;60.00;;;;;;5104889;28;27475;-60
2021/04/10 01:03:47;;;;;;;8.07;3.22;;;10.00;59.80;;;;;;5086477;28;27393;-60
2021/04/10 01:07:14;;;;;;;7.70;2.53;;;10.00;60.00;;;;;;5102411;27;27394;-59
2021/04/10 01:10:35;;;;;;;4.05;2.30;;;10.00;59.70;;;;;;5100582;28;27459;-59
2021/04/10 01:13:28;;;;;;;3.13;2.30;;;10.00;59.90;;;;;;5086092;28;27427;-59
2021/04/10 01:17:05;;;;;;;4.22;2.25;;;9.90;59.70;;;;;;5104269;28;27378;-59
2021/04/10 01:20:27;;;;;;;6.65;2.83;;;9.90;59.80;;;;;;5123334;27;27545;-61
2021/04/10 01:24:07;;;;;;;5.53;2.50;;;9.90;59.80;;;;;;5120983;27;27362;-59
2021/04/10 01:27:42;;;;;;;4.03;2.15;;;9.90;59.50;;;;;;5123037;27;27547;-60
2021/04/10 01:31:12;;;;;;;3.55;2.30;;;9.90;60.60;;;;;;5105214;27;27426;-59
2021/04/10 01:35:08;;;;;;;3.95;2.50;;;9.90;59.60;;;;;;5121102;27;27556;-61
2021/04/10 01:38:15;;;;;;;3.13;2.20;;;9.80;59.70;;;;;;5107844;27;27469;-62
2021/04/10 01:41:27;;;;;;;4.47;2.28;;;9.90;59.70;;;;;;5105147;27;27448;-60
2021/04/10 01:44:41;;;;;;;4.22;2.30;;;9.90;59.70;;;;;;5105270;27;27448;-59
2021/04/10 01:47:56;;;;;;;4.35;2.25;;;9.90;59.90;;;;;;5119551;27;27618;-60
2021/04/10 01:51:24;;;;;;;3.10;2.25;;;9.90;59.80;;;;;;5088275;28;27421;-59
2021/04/10 01:55:00;;;;;;;2.53;2.10;;;9.80;59.80;;;;;;5100213;28;27403;-60
2021/04/10 01:58:35;;;;;;;3.90;2.35;;;9.80;59.70;;;;;;5101958;28;27471;-59
2021/04/10 02:01:50;;;;;;;4.30;2.00;;;9.80;59.70;;;;;;5101662;28;27398;-60
2021/04/10 02:04:55;;;;;;;3.25;1.85;;;9.80;59.70;;;;;;5100469;28;27470;-59
2021/04/10 02:08:25;;;;;;;5.55;2.10;;;9.80;59.60;;;;;;5100090;28;27340;-59
2021/04/10 02:11:54;;;;;;;4.22;2.00;;;9.80;59.60;;;;;;5101091;28;27532;-59
2021/04/10 02:15:49;;;;;;;3.83;1.98;;;9.80;59.80;;;;;;5100349;28;27498;-60
2021/04/10 02:19:13;;;;;;;2.42;1.60;;;9.70;59.70;;;;;;5101659;28;27426;-59
2021/04/10 02:22:42;;;;;;;3.10;1.92;;;9.70;59.70;;;;;;5102937;28;27439;-59
2021/04/10 02:26:36;;;;;;;3.85;1.75;;;9.70;59.70;;;;;;5100988;28;27464;-60
2021/04/10 02:30:02;;;;;;;4.22;2.05;;;9.70;59.70;;;;;;5100414;28;27384;-59
2021/04/10 02:33:25;;;;;;;4.97;1.83;;;9.70;59.70;;;;;;5102770;28;27441;-59
2021/04/10 02:36:40;;;;;;;3.53;1.92;;;9.70;59.80;;;;;;5102894;28;27460;-60
2021/04/10 02:40:08;;;;;;;3.38;1.92;;;9.70;60.00;;;;;;5088659;28;27483;-59
2021/04/10 02:43:53;;;;;;;2.65;1.88;;;9.70;60.20;;;;;;5102684;28;27379;-59
2021/04/10 02:47:31;;;;;;;4.30;1.67;;;9.70;60.40;;;;;;5103397;28;27504;-59
2021/04/10 02:50:53;;;;;;;2.97;1.83;;;9.60;60.50;;;;;;5102915;28;27441;-59
2021/04/10 02:54:07;;;;;;;3.83;1.55;;;9.60;60.70;;;;;;5102834;28;27375;-59
2021/04/10 02:57:16;;;;;;;3.83;1.77;;;9.60;60.70;;;;;;5102763;28;27828;-59
2021/04/10 03:00:29;;;;;;;3.67;1.92;;;9.60;60.80;;;;;;5103139;28;27505;-59
2021/04/10 03:03:50;;;;;;;4.40;2.30;;;9.60;61.10;;;;;;5102525;28;27422;-59
2021/04/10 03:07:03;;;;;;;2.58;1.83;;;9.60;61.10;;;;;;5102336;28;26865;-59
2021/04/10 03:09:52;;;;;;;2.90;1.80;;;9.50;61.20;;;;;;5102040;28;27416;-60
2021/04/10 03:13:05;;;;;;;3.88;1.60;;;9.60;61.50;;;;;;5102974;28;27427;-59
2021/04/10 03:16:12;;;;;;;4.65;1.88;;;9.50;61.40;;;;;;5106182;28;27455;-59
2021/04/10 03:19:21;;;;;;;3.78;1.70;;;9.50;61.50;;;;;;5102640;28;27325;-60
2021/04/10 03:22:36;;;;;;;2.75;1.80;;;9.50;61.40;;;;;;5104706;28;27344;-60
2021/04/10 03:26:03;;;;;;;2.67;2.05;;;9.50;61.50;;;;;;5106124;28;27438;-59
2021/04/10 03:29:14;;;;;;;1.63;1.17;;;9.50;61.60;;;;;;5104757;28;27362;-59
2021/04/10 03:32:33;;;;;;;2.17;1.50;;;9.60;61.80;;;;;;5105463;28;27427;-60
2021/04/10 03:35:44;;;;;;;5.47;1.45;;;9.60;62.00;;;;;;5105932;28;27428;-60
2021/04/10 03:39:11;;;;;;;3.60;1.40;;;9.60;62.00;;;;;;5104847;28;27365;-59
2021/04/10 03:42:40;;;;;;;5.82;1.70;;;9.60;62.10;;;;;;5102703;28;27469;-59
2021/04/10 03:46:10;;;;;;;3.72;1.35;;;9.60;62.10;;;;;;5103129;28;27348;-59
2021/04/10 03:49:39;;;;;;;3.80;1.33;;;9.60;62.30;;;;;;5103618;28;27934;-59
2021/04/10 03:52:25;;;;;;;2.42;1.48;;;9.60;62.30;;;;;;5103624;28;27482;-62
2021/04/10 03:55:52;;;;;;;3.92;1.60;;;9.60;62.30;;;;;;5101943;28;27405;-59
2021/04/10 03:59:19;;;;;;;2.85;1.38;;;9.60;62.40;;;;;;5104076;28;27429;-59
2021/04/10 04:02:52;;;;;;;3.97;1.55;;;9.70;62.40;;;;;;5105729;28;27402;-59
2021/04/10 04:06:17;;;;;;;2.25;1.38;;;9.60;62.30;;;;;;5105172;28;27489;-59
2021/04/10 04:09:44;;;;;;;2.60;1.33;;;9.70;62.40;;;;;;5105555;28;27370;-59
2021/04/10 04:13:11;;;;;;;3.22;1.25;;;9.70;62.40;;;;;;5103168;27;27398;-59
2021/04/10 04:16:38;;;;;;;2.22;1.40;;;9.70;62.60;;;;;;5105493;28;27301;-59
2021/04/10 04:20:25;;;;;;;3.42;1.40;;;9.70;62.60;;;;;;5105186;28;27427;-59
2021/04/10 04:23:47;;;;;;;3.97;1.30;;;9.70;62.70;;;;;;5105252;28;27494;-59
2021/04/10 04:26:58;;;;;;;2.53;1.55;;;9.70;62.60;;;;;;5105399;28;27486;-59
2021/04/10 04:30:25;;;;;;;4.57;1.30;;;9.70;62.60;;;;;;5104513;28;27383;-59
2021/04/10 04:33:37;;;;;;;2.08;1.15;;;9.70;62.70;;;;;;5104576;28;27338;-59
2021/04/10 04:36:24;;;;;;;4.70;1.30;;;9.70;62.40;;;;;;5104744;28;27345;-59
2021/04/10 04:39:32;;;;;;;3.63;1.33;;;9.60;62.40;;;;;;5105289;28;27371;-59
2021/04/10 04:43:00;;;;;;;5.30;1.17;;;9.70;62.90;;;;;;5104553;28;27426;-60
2021/04/10 04:46:00;;;;;;;2.90;1.08;;;9.60;62.60;;;;;;5101838;28;27477;-62
2021/04/10 04:49:06;;;;;;;4.40;1.17;;;9.70;62.70;;;;;;5105151;28;27336;-59
2021/04/10 04:52:36;;;;;;;2.05;1.40;;;9.70;63.40;;;;;;5104115;28;27503;-59
2021/04/10 04:56:20;;;;;;;2.83;1.42;;;9.60;63.30;;;;;;5101081;28;27480;-59
2021/04/10 04:59:34;;;;;;;4.15;1.30;;;9.70;64.10;;;;;;5104641;28;27411;-59
2021/04/10 05:03:01;;;;;;;3.22;1.17;;;9.70;64.00;;;;;;5104913;28;27414;-59
2021/04/10 05:06:40;;;;;;;1.65;1.20;;;9.60;63.80;;;;;;5104167;28;27487;-60
2021/04/10 05:10:08;;;;;;;3.55;1.30;;;9.70;64.10;;;;;;5103044;28;27908;-59
2021/04/10 05:13:13;;;;;;;4.20;1.55;;;9.60;64.30;;;;;;5104480;28;27532;-59
2021/04/10 05:16:19;;;;;;;2.22;1.10;;;9.70;64.70;;;;;;5104517;28;27411;-59
2021/04/10 05:19:33;;;;;;;1.65;1.20;;;9.60;64.20;;;;;;5101396;28;27383;-59
2021/04/10 05:23:04;;;;;;;4.97;1.50;;;9.60;64.30;;;;;;5104525;28;27402;-59
2021/04/10 05:26:10;;;;;;;3.05;1.38;;;9.60;64.40;;;;;;5104033;27;27413;-59
2021/04/10 05:29:10;;;;;;;2.00;1.30;;;9.60;65.10;;;;;;5104624;28;27397;-59
2021/04/10 05:32:38;;;;;;;3.15;1.13;;;9.70;64.70;;;;;;5104275;28;27483;-59
2021/04/10 05:36:05;;;;;;;3.88;1.30;;;9.70;64.70;;;;;;5103807;28;28049;-59
2021/04/10 05:39:52;;;;;;;1.77;1.08;;;9.60;64.70;;;;;;5100654;28;27425;-59
2021/04/10 05:43:06;;;;;;;3.40;1.33;;;9.60;65.40;;;;;;5102635;28;27348;-59
2021/04/10 05:46:12;;;;;;;3.85;1.10;;;9.60;65.80;;;;;;5103542;28;27477;-59
2021/04/10 05:49:40;;;;;;;6.30;1.15;;;9.60;65.70;;;;;;5102879;28;27443;-59
2021/04/10 05:53:05;;;;;;;4.50;1.50;;;9.60;65.80;;;;;;5103278;28;27515;-59
2021/04/10 05:56:33;;;;;;;2.05;1.17;;;9.70;66.10;;;;;;5103943;28;27453;-59
2021/04/10 06:00:11;;;;;;;3.30;1.40;;;9.70;65.50;;;;;;5103950;28;27394;-59
2021/04/10 06:03:43;;;;;;;2.55;1.25;;;9.60;65.70;;;;;;5102654;28;27521;-59
2021/04/10 06:06:59;;;;;;;3.03;1.13;;;9.60;65.90;;;;;;5103599;28;27439;-59
2021/04/10 06:10:06;;;;;;;3.13;1.33;;;9.60;65.80;;;;;;5105257;27;27403;-60
2021/04/10 06:13:33;;;;;;;2.22;1.40;;;9.70;66.00;;;;;;5106914;28;27581;-59
2021/04/10 06:17:04;;;;;;;2.30;1.65;;;9.70;66.00;;;;;;5106557;28;27485;-59
2021/04/10 06:20:31;;;;;;;3.08;1.60;;;9.70;66.40;;;;;;5107189;28;27430;-59
2021/04/10 06:23:57;;;;;;;2.58;1.50;;;9.70;66.60;;;;;;5106670;28;27574;-59
2021/04/10 06:27:23;;;;;;;3.30;1.50;;;9.70;66.80;;;;;;5107102;28;27451;-58
2021/04/10 06:30:36;;;;;;;3.00;1.60;;;9.70;66.80;;;;;;5106591;28;27403;-59
2021/04/10 06:33:33;;;;;;;5.07;1.70;;;9.70;67.10;;;;;;5103756;28;27322;-59
2021/04/10 06:37:01;;;;;;;5.90;2.20;;;9.70;67.20;;;;;;5107307;28;27426;-59
2021/04/10 06:40:28;;;;;;;1.20;1.10;;;9.70;67.30;;;;;;5106652;28;27418;-59
2021/04/10 06:44:15;;;;;;;1.70;1.60;;;9.70;67.30;;;;;;5107041;28;27396;-59
2021/04/10 06:47:46;;;;;;;2.75;2.00;;;9.70;67.30;;;;;;5104640;28;27586;-59
2021/04/10 06:51:13;;;;;;;2.67;1.45;;;9.70;67.50;;;;;;5105071;28;27647;-59
2021/04/10 06:54:40;;;;;;;2.55;1.17;;;9.70;67.50;;;;;;5106264;28;27545;-59
2021/04/10 06:58:03;;;;;;;4.00;1.40;;;9.70;67.60;;;;;;5106209;28;27341;-59
2021/04/10 07:01:17;;;;;;;1.58;1.17;;;9.70;67.80;;;;;;5106476;28;27367;-59
2021/04/10 07:04:44;;;;;;;3.85;1.50;;;9.70;67.80;;;;;;5106547;28;27344;-59
2021/04/10 07:08:32;;;;;;;1.52;0.98;;;9.70;67.80;;;;;;5106442;28;27315;-59
2021/04/10 07:11:38;;;;;;;2.53;1.17;;;9.70;67.80;;;;;;5104806;28;27439;-59
2021/04/10 07:14:35;;;;;;;4.00;1.50;;;9.70;67.50;;;;;;5106220;28;27409;-59
2021/04/10 07:17:49;;;;;;;2.28;1.23;;;9.70;67.50;;;;;;5103035;28;27367;-59
2021/04/10 07:20:36;;;;;;;2.08;1.05;;;9.80;67.60;;;;;;5105511;27;27611;-59
2021/04/10 07:23:42;;;;;;;1.90;1.30;;;9.70;67.60;;;;;;5102472;28;27827;-59
2021/04/10 07:26:45;;;;;;;3.20;1.35;;;9.80;67.60;;;;;;5105893;28;27323;-60
2021/04/10 07:29:38;;;;;;;5.50;1.55;;;9.80;67.60;;;;;;5106655;28;27484;-59
2021/04/10 07:32:34;;;;;;;1.95;1.30;;;9.80;67.60;;;;;;5105958;28;27406;-59
2021/04/10 07:36:02;;;;;;;2.72;1.38;;;9.80;67.60;;;;;;5106160;28;27423;-59
2021/04/10 07:39:28;;;;;;;3.17;1.05;;;9.90;67.30;;;;;;5106014;28;27487;-59
2021/04/10 07:42:38;;;;;;;3.58;1.20;;;9.90;67.20;;;;;;5106080;28;27425;-59
2021/04/10 07:46:09;;;;;;;1.80;1.13;;;9.90;67.10;;;;;;5104970;28;27343;-59
2021/04/10 07:49:27;;;;;;;4.68;1.40;;;9.90;67.10;;;;;;5105610;28;27369;-59
2021/04/10 07:52:54;;;;;;;2.72;1.30;;;10.00;67.30;;;;;;5104196;28;27414;-58
2021/04/10 07:56:20;;;;;;;2.22;1.48;;;10.00;67.50;;;;;;5105373;28;27519;-59
2021/04/10 07:59:28;;;;;;;2.25;1.23;;;10.10;67.60;;;;;;5105127;28;27410;-59
2021/04/10 08:02:56;;;;;;;2.55;1.30;;;10.10;67.80;;;;;;5105813;28;27599;-59
2021/04/10 08:06:04;;;;;;;3.55;1.42;;;10.10;67.70;;;;;;5105282;28;27558;-60
2021/04/10 08:08:52;;;;;;;2.85;1.55;;;10.20;67.80;;;;;;5105736;28;27391;-59
2021/04/10 08:12:02;;;;;;;2.47;1.80;;;10.20;68.00;;;;;;5103043;28;27504;-59
2021/04/10 08:15:02;;;;;;;1.90;1.25;;;10.30;68.20;;;;;;5105725;28;27484;-59
2021/04/10 08:18:34;;;;;;;2.15;1.63;;;10.30;68.30;;;;;;5101667;28;27377;-59
2021/04/10 08:21:34;;;;;;;1.42;1.13;;;10.40;68.40;;;;;;5105122;28;27395;-59
2021/04/10 08:25:29;;;;;;;2.97;1.23;;;10.50;68.70;;;;;;5102156;28;27334;-59
2021/04/10 08:28:29;;;;;;;2.00;1.40;;;10.50;68.70;;;;;;5104489;28;27418;-59
2021/04/10 08:31:20;;;;;;;2.38;1.40;;;10.60;68.90;;;;;;5101190;28;27465;-60
2021/04/10 08:34:11;;;;;;;2.85;1.80;;;10.60;68.90;;;;;;5104968;28;27359;-59
2021/04/10 08:37:16;;;;;;;3.22;1.55;;;10.60;68.80;;;;;;5105103;28;27387;-59
2021/04/10 08:40:21;;;;;;;2.03;1.50;;;10.70;68.80;;;;;;5104152;28;27407;-57
2021/04/10 08:43:12;;;;;;;2.53;1.75;;;10.70;68.80;;;;;;5104079;28;27316;-61
2021/04/10 08:46:04;;;;;;;3.58;1.77;;;10.80;69.70;;;;;;5104637;28;27434;-59
2021/04/10 08:49:01;;;;;;;4.07;1.48;;;10.80;69.70;;;;;;5104360;28;27357;-59
2021/04/10 08:51:55;;;;;;;1.90;1.40;;;10.90;69.30;;;;;;5104672;28;27446;-59
2021/04/10 08:55:06;;;;;;;1.98;1.45;;;10.90;69.10;;;;;;5104864;28;27378;-58
2021/04/10 08:58:22;;;;;;;2.55;1.50;;;11.00;69.20;;;;;;5105201;28;27317;-59
2021/04/10 09:01:49;;;;;;;2.03;1.30;;;11.10;69.40;;;;;;5104981;28;27384;-58
2021/04/10 09:05:36;;;;;;;1.63;1.10;;;11.30;69.60;;;;;;5104420;28;27390;-61
2021/04/10 09:09:09;;;;;;;4.68;1.40;;;11.50;69.60;;;;;;5104644;28;27406;-59
2021/04/10 09:12:46;;;;;;;1.92;1.20;;;11.70;70.00;;;;;;5103143;28;27654;-59
2021/04/10 09:16:17;;;;;;;2.97;1.30;;;11.80;69.90;;;;;;5104275;28;27338;-58
2021/04/10 09:19:24;;;;;;;2.67;1.45;;;12.00;69.90;;;;;;5104520;28;28058;-61
2021/04/10 09:22:34;;;;;;;2.65;1.55;;;12.10;69.60;;;;;;5104778;28;27383;-59
2021/04/10 09:25:29;;;;;;;3.72;1.48;;;12.20;69.50;;;;;;5102454;28;27396;-59
2021/04/10 09:28:54;;;;;;;2.70;1.38;;;12.20;69.70;;;;;;5104443;28;27384;-59
2021/04/10 09:31:59;;;;;;;1.63;1.23;;;12.20;68.80;;;;;;5104499;28;27409;-59
2021/04/10 09:35:10;;;;;;;1.65;1.20;;;12.20;69.70;;;;;;5104620;28;27469;-59
2021/04/10 09:38:34;;;;;;;2.25;1.50;;;12.20;68.50;;;;;;5104657;28;27327;-59
2021/04/10 09:41:30;;;;;;;1.92;1.20;;;12.10;68.20;;;;;;5104244;28;27327;-59
2021/04/10 09:44:56;;;;;;;2.20;1.40;;;12.20;68.50;;;;;;5091955;28;27391;-58
2021/04/10 09:48:03;;;;;;;3.03;1.67;;;12.20;69.10;;;;;;5106537;27;27573;-59
2021/04/10 09:51:14;;;;;;;1.88;1.52;;;12.30;68.20;;;;;;5107090;28;27033;-59
2021/04/10 09:54:28;;;;;;;2.42;1.23;;;12.40;67.50;;;;;;5104706;28;27393;-59
2021/04/10 09:57:45;;;;;;;2.10;1.85;;;12.50;67.10;;;;;;5107013;28;27992;-59
2021/04/10 10:00:51;;;;;;;1.70;1.00;;;12.70;66.50;;;;;;5107595;28;27361;-61
2021/04/10 10:04:17;;;;;;;2.63;0.85;;;12.90;66.40;;;;;;5107569;28;27362;-59
2021/04/10 10:07:23;;;;;;;1.67;1.00;;;13.10;66.40;;;;;;5106438;27;27422;-59
2021/04/10 10:10:53;;;;;;;3.38;1.33;;;13.30;66.40;;;;;;5106510;28;27500;-59
2021/04/10 10:14:20;;;;;;;1.00;0.90;;;13.40;65.90;;;;;;5105838;28;27413;-59
2021/04/10 10:17:13;;;;;;;2.30;1.40;;;13.60;65.10;;;;;;5106611;28;27565;-56
2021/04/10 10:20:26;;;;;;;2.95;1.65;;;13.90;63.70;;;;;;5106818;28;27397;-59
2021/04/10 10:23:41;;;;;;;1.55;1.13;;;14.20;64.00;;;;;;5103170;28;27840;-59
2021/04/10 10:26:36;;;;;;;4.65;1.25;;;14.60;62.90;;;;;;5103810;28;27453;-59
2021/04/10 10:29:49;;;;;;;1.77;1.20;;;14.70;61.40;;;;;;5107185;28;27481;-59
2021/04/10 10:32:47;;;;;;;2.15;1.40;;;14.70;61.90;;;;;;5105843;28;27506;-60
2021/04/10 10:35:53;;;;;;;2.30;0.90;;;14.50;61.90;;;;;;5107045;28;27394;-59
2021/04/10 10:39:21;;;;;;;4.30;1.20;;;14.40;61.20;;;;;;5105478;28;27368;-59
2021/04/10 10:42:45;;;;;;;1.15;0.80;;;14.30;61.50;;;;;;5107031;28;27442;-59
2021/04/10 10:45:46;;;;;;;1.70;1.48;;;14.20;61.20;;;;;;5106499;28;27339;-58
2021/04/10 10:48:36;;;;;;;2.60;1.33;;;14.10;62.30;;;;;;5107051;28;27407;-59
2021/04/10 10:51:50;;;;;;;1.67;1.02;;;14.00;61.90;;;;;;5106355;28;27469;-58
2021/04/10 10:55:53;;;;;;;2.00;0.95;;;14.10;62.90;;;;;;5102399;28;27404;-59
2021/04/10 10:58:53;;;;;;;2.08;1.70;;;14.10;63.50;;;;;;5106794;28;27386;-59
2021/04/10 11:01:45;;;;;;;2.53;1.45;;;14.20;62.30;;;;;;5106524;28;27408;-59
2021/04/10 11:04:30;;;;;;;2.15;1.50;;;14.30;61.20;;;;;;5106562;28;27417;-60
2021/04/10 11:07:22;;;;;;;1.88;1.45;;;14.40;60.90;;;;;;5106332;28;27385;-57
2021/04/10 11:10:40;;;;;;;1.20;1.02;;;14.50;61.40;;;;;;5104800;28;27362;-58
2021/04/10 11:14:10;;;;;;;2.67;1.20;;;14.80;60.50;;;;;;5104816;28;27429;-57
2021/04/10 11:17:25;;;;;;;2.33;1.30;;;15.10;61.70;;;;;;5106399;28;27483;-59
2021/04/10 11:21:14;;;;;;;2.45;1.35;;;15.30;62.70;;;;;;5103115;28;27465;-56
2021/04/10 11:24:43;;;;;;;2.25;1.30;;;15.80;60.60;;;;;;5106061;28;27569;-59
2021/04/10 11:28:04;;;;;;;2.17;0.98;;;16.00;58.60;;;;;;5105440;28;27437;-57
2021/04/10 11:31:10;;;;;;;2.35;1.25;;;16.40;59.40;;;;;;5106111;28;27421;-59
2021/04/10 11:34:26;;;;;;;2.58;0.93;;;16.60;62.30;;;;;;5106101;28;27339;-58
2021/04/10 11:37:30;;;;;;;0.90;0.82;;;16.80;62.10;;;;;;5106431;28;26832;-56
2021/04/10 11:40:33;;;;;;;3.00;1.20;;;17.10;62.60;;;;;;5106279;28;27336;-55
2021/04/10 11:43:46;;;;;;;3.30;0.85;;;17.40;62.60;;;;;;5106172;28;27388;-58
2021/04/10 11:46:46;;;;;;;2.17;0.90;;;17.70;61.50;;;;;;5087560;28;27447;-58
2021/04/10 11:50:09;;;;;;;1.67;1.00;;;18.10;61.60;;;;;;5105753;28;27419;-59
2021/04/10 11:53:18;;;;;;;1.00;0.63;;;18.50;59.70;;;;;;5104965;28;27572;-58
2021/04/10 11:56:58;;;;;;;1.90;0.85;;;18.70;58.10;;;;;;5104935;28;27449;-57
2021/04/10 12:00:09;;;;;;;1.85;1.00;;;19.00;56.80;;;;;;5104154;28;27367;-57
2021/04/10 12:03:20;;;;;;;2.10;0.85;;;19.00;53.50;;;;;;5103382;28;27541;-57
2021/04/10 12:06:06;;;;;;;1.35;0.65;;;19.00;53.80;;;;;;5105746;28;27373;-58
2021/04/10 12:09:33;;;;;;;1.15;0.88;;;19.10;53.90;;;;;;5090523;28;27336;-58
2021/04/10 12:12:29;;;;;;;0.85;0.70;;;19.20;53.90;;;;;;5103534;28;27596;-58
2021/04/10 12:15:32;;;;;;;0.80;0.60;;;19.10;54.50;;;;;;5105274;28;27408;-59
2021/04/10 12:18:45;;;;;;;2.67;0.70;;;19.00;52.70;;;;;;5105296;28;27418;-59
2021/04/10 12:22:11;;;;;;;0.65;0.60;;;18.80;51.40;;;;;;5104449;28;27453;-59
2021/04/10 12:25:22;;;;;;;1.05;0.85;;;18.60;50.50;;;;;;5104465;28;27450;-57
2021/04/10 12:28:29;;;;;;;1.77;0.90;;;18.50;51.60;;;;;;5104568;28;27393;-58
2021/04/10 12:31:42;;;;;;;1.20;0.95;;;18.30;50.60;;;;;;5104747;28;27875;-58
2021/04/10 12:35:22;;;;;;;1.27;0.60;;;18.30;51.80;;;;;;5104102;28;27467;-58
2021/04/10 12:38:49;;;;;;;0.65;0.65;;;18.30;53.80;;;;;;5101722;28;27489;-56
2021/04/10 12:41:53;;;;;;;1.55;0.70;;;18.40;54.50;;;;;;5105072;28;27335;-56
2021/04/10 12:45:18;;;;;;;1.38;0.60;;;18.50;53.40;;;;;;5102857;28;27485;-59
2021/04/10 12:48:15;;;;;;;1.30;0.82;;;18.60;54.70;;;;;;5104738;28;27407;-57
2021/04/10 12:51:42;;;;;;;3.97;0.60;;;18.70;54.80;;;;;;5104389;28;27558;-58
2021/04/10 12:54:49;;;;;;;3.22;0.52;;;18.90;54.90;;;;;;5103105;28;27441;-58
2021/04/10 12:57:46;;;;;;;1.83;0.60;;;19.10;54.90;;;;;;5103739;28;27410;-56
2021/04/10 13:01:13;;;;;;;2.47;0.70;;;19.10;54.70;;;;;;5089978;28;27312;-61
2021/04/10 13:04:38;;;;;;;2.75;0.88;;;19.20;54.70;;;;;;5104525;28;27319;-58
2021/04/10 13:07:22;;;;;;;1.30;0.70;;;19.30;55.50;;;;;;5104824;28;27461;-61
2021/04/10 13:10:41;;;;;;;0.77;0.55;;;19.40;56.30;;;;;;5104160;28;27447;-58
2021/04/10 13:14:09;;;;;;;3.28;0.50;;;19.40;55.20;;;;;;5104822;28;27432;-57
2021/04/10 13:17:07;;;;;;;5.82;0.80;;;19.40;55.50;;;;;;5104848;28;27407;-57
2021/04/10 13:20:16;;;;;;;3.50;0.73;;;19.50;56.80;;;;;;5104306;28;27458;-55
2021/04/10 13:23:30;;;;;;;2.40;0.77;;;19.50;55.70;;;;;;5102739;28;27600;-61
2021/04/10 13:26:36;;;;;;;1.73;0.50;;;19.60;56.10;;;;;;5103875;28;27499;-55
2021/04/10 13:30:03;;;;;;;2.03;0.60;;;19.60;54.90;;;;;;5104410;28;27419;-52
2021/04/10 13:33:36;;;;;;;1.15;0.70;;;19.70;53.80;;;;;;5104003;27;26955;-57
2021/04/10 13:36:38;;;;;;;0.47;0.47;;;19.50;52.00;;;;;;5104259;28;27471;-60
2021/04/10 13:40:23;;;;;;;1.58;0.60;;;19.40;53.70;;;;;;5102859;28;27463;-58
2021/04/10 13:43:36;;;;;;;1.75;1.48;;;19.30;51.40;;;;;;5100553;28;27417;-58
2021/04/10 13:46:41;;;;;;;2.42;0.50;;;19.20;51.40;;;;;;5104479;28;27382;-59
2021/04/10 13:49:48;;;;;;;1.83;0.80;;;19.10;51.60;;;;;;5104372;28;27949;-58
2021/04/10 13:53:15;;;;;;;1.33;0.73;;;19.00;50.70;;;;;;5100780;28;27495;-59
2021/04/10 13:56:35;;;;;;;1.73;0.90;;;18.90;51.40;;;;;;5104106;28;27393;-58
2021/04/10 13:59:46;;;;;;;2.90;0.70;;;18.70;51.90;;;;;;5104045;28;27398;-58
2021/04/10 14:03:13;;;;;;;1.42;0.75;;;18.70;52.00;;;;;;5103958;28;27484;-58
2021/04/10 14:07:00;;;;;;;1.70;0.77;;;18.80;53.40;;;;;;5104265;28;27383;-58
2021/04/10 14:10:14;;;;;;;1.13;0.80;;;18.80;53.20;;;;;;5103911;28;27320;-56
2021/04/10 14:13:42;;;;;;;1.70;0.60;;;18.80;53.50;;;;;;5102751;28;27344;-59
2021/04/10 14:16:53;;;;;;;1.25;0.63;;;18.90;53.30;;;;;;5102936;28;27476;-59
2021/04/10 14:20:21;;;;;;;1.02;0.60;;;18.90;54.20;;;;;;5102151;28;27397;-58
2021/04/10 14:24:03;;;;;;;0.98;0.60;;;18.90;50.70;;;;;;5103751;28;27474;-59
2021/04/10 14:27:34;;;;;;;3.33;0.80;;;18.90;52.00;;;;;;5100416;28;27336;-57
2021/04/10 14:30:40;;;;;;;2.45;1.00;;;19.00;50.90;;;;;;5102662;27;27412;-59
2021/04/10 14:33:53;;;;;;;1.38;0.90;;;19.10;50.20;;;;;;5107013;28;27546;-59
2021/04/10 14:37:21;;;;;;;0.82;0.80;;;19.10;49.90;;;;;;5107437;28;27493;-58
2021/04/10 14:41:07;;;;;;;1.80;0.70;;;19.20;50.80;;;;;;5107027;28;27472;-62
2021/04/10 14:44:38;;;;;;;1.70;0.77;;;19.20;51.20;;;;;;5106216;28;28079;-60
2021/04/10 14:47:52;;;;;;;1.05;0.60;;;19.20;51.70;;;;;;5105111;28;27446;-61
2021/04/10 14:51:11;;;;;;;2.05;0.90;;;19.20;53.20;;;;;;5106700;28;27461;-61
2021/04/10 14:54:02;;;;;;;1.40;0.80;;;18.90;49.90;;;;;;5106104;28;28005;-61
2021/04/10 14:56:53;;;;;;;1.45;1.00;;;19.20;49.10;;;;;;5106877;28;27439;-62
2021/04/10 15:00:20;;;;;;;2.47;0.90;;;19.30;48.50;;;;;;5106535;28;27363;-61
2021/04/10 15:03:36;;;;;;;0.63;0.63;;;19.30;49.40;;;;;;5106338;28;27441;-61
2021/04/10 15:07:10;;;;;;;1.50;0.90;;;19.30;51.20;;;;;;5104679;28;27450;-62
2021/04/10 15:09:56;;;;;;;2.13;0.80;;;19.40;52.00;;;;;;5105599;28;27409;-61
2021/04/10 15:13:20;;;;;;;2.10;0.95;;;19.30;50.80;;;;;;5106344;28;27368;-61
2021/04/10 15:16:32;;;;;;;2.00;1.00;;;19.30;51.30;;;;;;5106452;28;27324;-61
2021/04/10 15:19:29;;;;;;;2.63;1.10;;;19.30;51.80;;;;;;5103061;28;27329;-61
2021/04/10 15:22:37;;;;;;;1.52;0.90;;;19.30;51.50;;;;;;5102565;28;27407;-61
2021/04/10 15:25:51;;;;;;;1.23;0.90;;;19.20;52.00;;;;;;5106384;28;27473;-61
2021/04/10 15:28:57;;;;;;;1.15;0.93;;;19.20;48.40;;;;;;5106309;28;27407;-61
2021/04/10 15:32:14;;;;;;;1.42;1.20;;;19.10;47.80;;;;;;5102733;28;27444;-61
2021/04/10 15:35:20;;;;;;;2.17;1.13;;;19.00;49.20;;;;;;5106056;28;27948;-61
2021/04/10 15:38:07;;;;;;;1.52;0.90;;;18.90;45.30;;;;;;5105369;28;27433;-61
2021/04/10 15:41:16;;;;;;;3.47;1.02;;;18.70;46.10;;;;;;5104653;27;27403;-61
2021/04/10 15:44:44;;;;;;;2.60;1.40;;;18.70;46.80;;;;;;5106098;28;27315;-61
2021/04/10 15:48:11;;;;;;;2.72;1.00;;;18.60;47.30;;;;;;5105294;28;27504;-61
2021/04/10 15:51:45;;;;;;;1.80;1.10;;;18.50;47.00;;;;;;5105759;28;27426;-61
2021/04/10 15:55:08;;;;;;;2.22;1.33;;;18.40;47.90;;;;;;5105888;28;27457;-61
2021/04/10 15:58:15;;;;;;;2.92;1.33;;;18.30;47.30;;;;;;5105820;28;27412;-61
2021/04/10 16:01:01;;;;;;;4.65;1.23;;;18.30;50.70;;;;;;5105594;28;27422;-63
2021/04/10 16:04:19;;;;;;;1.45;1.08;;;18.20;50.10;;;;;;5104746;28;27487;-62
2021/04/10 16:07:31;;;;;;;4.07;1.58;;;18.20;50.10;;;;;;5105848;28;27394;-62
2021/04/10 16:10:45;;;;;;;3.90;1.27;;;18.20;49.30;;;;;;5104731;28;27403;-64
2021/04/10 16:13:53;;;;;;;1.20;1.00;;;18.10;49.00;;;;;;5105681;28;27406;-61
2021/04/10 16:17:21;;;;;;;2.42;1.45;;;18.10;49.60;;;;;;5104231;28;27340;-62
2021/04/10 16:20:42;;;;;;;3.00;1.00;;;18.10;49.10;;;;;;5105117;28;27423;-61
2021/04/10 16:24:09;;;;;;;2.00;1.20;;;18.00;48.80;;;;;;5105591;28;27420;-61
2021/04/10 16:27:53;;;;;;;5.53;1.65;;;18.00;50.60;;;;;;5101650;28;27328;-61
2021/04/10 16:31:01;;;;;;;1.80;1.08;;;17.90;50.70;;;;;;5104131;28;27340;-62
2021/04/10 16:33:56;;;;;;;1.35;1.23;;;17.80;50.10;;;;;;5103727;28;27312;-62
2021/04/10 16:36:52;;;;;;;2.53;1.10;;;17.70;50.00;;;;;;5104989;28;27318;-61
2021/04/10 16:40:19;;;;;;;3.47;1.40;;;17.70;51.10;;;;;;5105165;28;27434;-63
2021/04/10 16:43:59;;;;;;;2.85;2.10;;;17.60;51.20;;;;;;5105343;28;27433;-64
2021/04/10 16:47:45;;;;;;;3.63;2.47;;;17.60;51.80;;;;;;5101736;28;27397;-61
2021/04/10 16:51:32;;;;;;;2.95;2.20;;;17.50;48.10;;;;;;5101276;28;27331;-62
2021/04/10 16:55:07;;;;;;;4.13;3.00;;;17.40;48.00;;;;;;5103885;28;27483;-61
2021/04/10 16:58:34;;;;;;;3.67;2.45;;;17.30;49.20;;;;;;5104428;28;27404;-61
2021/04/10 17:02:30;;;;;;;3.70;2.30;;;17.20;48.80;;;;;;5102360;28;27428;-61
2021/04/10 17:05:38;;;;;;;4.18;2.40;;;17.10;48.20;;;;;;5104924;28;27481;-62
2021/04/10 17:08:30;;;;;;;4.05;2.25;;;17.00;48.40;;;;;;5104350;28;28037;-61
2021/04/10 17:11:50;;;;;;;3.05;1.88;;;16.90;50.10;;;;;;5103887;28;27601;-61